createdAt,value
2017-12-20T00:00:16.456Z,0.00
2017-12-20T00:01:16.497Z,0.00
2017-12-20T00:02:16.555Z,0.00
2017-12-20T00:03:16.603Z,0.00
2017-12-20T00:04:16.621Z,0.00
2017-12-20T00:05:16.664Z,0.00
2017-12-20T00:06:16.706Z,0.00
2017-12-20T00:07:16.746Z,0.00
2017-12-20T00:08:16.805Z,0.00
2017-12-20T00:09:16.828Z,0.00
2017-12-20T00:10:16.869Z,0.00
2017-12-20T00:11:16.916Z,0.00
2017-12-20T00:12:16.953Z,0.00
2017-12-20T00:13:17.009Z,0.00
2017-12-20T00:14:17.044Z,0.00
2017-12-20T00:15:17.080Z,0.00
2017-12-20T00:16:17.118Z,0.00
2017-12-20T00:17:17.162Z,0.00
2017-12-20T00:18:17.220Z,0.00
2017-12-20T00:19:17.244Z,0.00
2017-12-20T00:20:17.283Z,0.00
2017-12-20T00:21:17.325Z,0.00
2017-12-20T00:22:17.368Z,0.00
2017-12-20T00:23:17.428Z,0.00
2017-12-20T00:24:17.454Z,0.00
2017-12-20T00:25:17.494Z,0.00
2017-12-20T00:26:17.554Z,0.00
2017-12-20T00:27:17.577Z,0.00
2017-12-20T00:28:17.619Z,0.00
2017-12-20T00:29:17.673Z,0.00
2017-12-20T00:30:17.695Z,0.00
2017-12-20T00:31:17.739Z,0.00
2017-12-20T00:32:17.788Z,0.00
2017-12-20T00:33:17.821Z,0.00
2017-12-20T00:34:17.878Z,0.00
2017-12-20T00:35:17.913Z,0.00
2017-12-20T00:36:17.956Z,0.00
2017-12-20T00:37:17.986Z,0.00
2017-12-20T00:38:18.039Z,0.00
2017-12-20T00:39:18.089Z,0.00
2017-12-20T00:40:18.852Z,0.00
2017-12-20T00:41:18.159Z,0.00
2017-12-20T00:42:18.194Z,0.00
2017-12-20T00:43:18.237Z,0.00
2017-12-20T00:44:18.294Z,0.00
2017-12-20T00:45:18.316Z,0.00
2017-12-20T00:46:18.358Z,0.00
2017-12-20T00:47:18.405Z,0.00
2017-12-20T00:48:18.443Z,0.00
2017-12-20T00:49:18.498Z,0.00
2017-12-20T00:50:18.536Z,0.00
2017-12-20T00:51:18.565Z,0.00
2017-12-20T00:52:18.605Z,0.00
2017-12-20T00:53:18.665Z,0.00
2017-12-20T00:54:18.705Z,0.00
2017-12-20T00:55:18.732Z,0.00
2017-12-20T00:56:18.776Z,0.00
2017-12-20T00:57:18.816Z,0.00
2017-12-20T00:58:18.859Z,0.00
2017-12-20T00:59:18.914Z,0.00
2017-12-20T01:00:18.940Z,0.00
2017-12-20T01:01:18.988Z,0.00
2017-12-20T01:02:19.026Z,0.00
2017-12-20T01:03:19.061Z,0.00
2017-12-20T01:04:19.124Z,0.00
2017-12-20T01:05:19.147Z,0.00
2017-12-20T01:06:19.184Z,0.00
2017-12-20T01:07:19.226Z,0.00
2017-12-20T01:08:19.271Z,0.00
2017-12-20T01:09:19.327Z,0.00
2017-12-20T01:10:19.357Z,0.00
2017-12-20T01:11:19.395Z,0.00
2017-12-20T01:12:19.501Z,0.00
2017-12-20T01:13:19.476Z,0.00
2017-12-20T01:14:19.536Z,0.00
2017-12-20T01:15:19.559Z,0.00
2017-12-20T01:16:19.620Z,0.00
2017-12-20T01:17:19.642Z,0.00
2017-12-20T01:18:19.682Z,0.00
2017-12-20T01:19:19.725Z,0.00
2017-12-20T01:20:19.780Z,0.00
2017-12-20T01:21:19.805Z,0.00
2017-12-20T01:22:19.862Z,0.00
2017-12-20T01:23:19.890Z,0.00
2017-12-20T01:24:19.930Z,0.00
2017-12-20T01:25:19.990Z,0.00
2017-12-20T01:26:20.014Z,0.00
2017-12-20T01:27:20.057Z,0.00
2017-12-20T01:28:20.096Z,0.00
2017-12-20T01:29:20.137Z,0.00
2017-12-20T01:30:20.201Z,0.00
2017-12-20T01:31:20.223Z,0.00
2017-12-20T01:32:20.262Z,0.00
2017-12-20T01:33:20.303Z,0.00
2017-12-20T01:34:20.351Z,0.00
2017-12-20T01:35:20.404Z,0.00
2017-12-20T01:36:20.425Z,0.00
2017-12-20T01:37:20.486Z,0.00
2017-12-20T01:38:20.509Z,0.00
2017-12-20T01:39:20.555Z,0.00
2017-12-20T01:40:20.592Z,0.00
2017-12-20T01:41:20.635Z,0.00
2017-12-20T01:42:20.698Z,0.00
2017-12-20T01:43:20.719Z,0.00
2017-12-20T01:44:20.780Z,0.00
2017-12-20T01:45:20.799Z,0.00
2017-12-20T01:46:20.843Z,0.00
2017-12-20T01:47:20.904Z,0.00
2017-12-20T01:48:20.930Z,0.00
2017-12-20T01:49:20.982Z,0.00
2017-12-20T01:50:21.006Z,0.00
2017-12-20T01:51:21.049Z,0.00
2017-12-20T01:52:21.094Z,0.00
2017-12-20T01:53:21.131Z,0.00
2017-12-20T01:54:21.190Z,0.00
2017-12-20T01:55:21.218Z,0.00
2017-12-20T01:56:21.257Z,0.00
2017-12-20T01:57:21.323Z,0.00
2017-12-20T01:58:21.337Z,0.00
2017-12-20T01:59:21.398Z,0.00
2017-12-20T02:00:21.421Z,0.00
2017-12-20T02:01:21.464Z,0.00
2017-12-20T02:02:21.504Z,0.00
2017-12-20T02:03:21.544Z,0.00
2017-12-20T02:04:21.607Z,0.00
2017-12-20T02:05:21.626Z,0.00
2017-12-20T02:06:21.666Z,0.00
2017-12-20T02:07:21.709Z,0.00
2017-12-20T02:08:21.750Z,0.00
2017-12-20T02:09:21.808Z,0.00
2017-12-20T02:10:21.832Z,0.00
2017-12-20T02:11:21.875Z,0.00
2017-12-20T02:12:21.916Z,0.00
2017-12-20T02:13:21.957Z,0.00
2017-12-20T02:14:22.015Z,0.00
2017-12-20T02:15:22.054Z,0.00
2017-12-20T02:16:22.079Z,0.00
2017-12-20T02:17:22.119Z,0.00
2017-12-20T02:18:22.160Z,0.00
2017-12-20T02:19:22.215Z,0.00
2017-12-20T02:20:22.263Z,0.00
2017-12-20T02:21:22.284Z,0.00
2017-12-20T02:22:22.329Z,0.00
2017-12-20T02:23:22.366Z,0.00
2017-12-20T02:24:22.412Z,0.00
2017-12-20T02:25:22.873Z,0.00
2017-12-20T02:26:22.489Z,0.00
2017-12-20T02:27:22.533Z,0.00
2017-12-20T02:28:22.573Z,0.00
2017-12-20T02:29:22.612Z,0.00
2017-12-20T02:30:22.654Z,0.00
2017-12-20T02:31:22.714Z,0.00
2017-12-20T02:32:22.741Z,0.00
2017-12-20T02:33:22.786Z,0.00
2017-12-20T02:34:22.823Z,0.00
2017-12-20T02:35:22.885Z,0.00
2017-12-20T02:37:59.400Z,0.00
2017-12-20T02:38:59.424Z,0.00
2017-12-20T02:39:59.468Z,0.00
2017-12-20T02:40:59.509Z,0.00
2017-12-20T02:41:59.567Z,0.00
2017-12-20T02:42:59.590Z,0.00
2017-12-20T02:43:59.634Z,0.00
2017-12-20T02:44:59.676Z,0.00
2017-12-20T02:45:59.715Z,0.00
2017-12-20T02:46:59.771Z,0.00
2017-12-20T02:47:59.798Z,0.00
2017-12-20T02:48:59.839Z,0.00
2017-12-20T02:49:59.877Z,0.00
2017-12-20T02:50:59.923Z,0.00
2017-12-20T02:51:59.984Z,0.00
2017-12-20T02:53:00.005Z,0.00
2017-12-20T02:54:00.045Z,0.00
2017-12-20T02:55:00.095Z,0.00
2017-12-20T02:56:00.128Z,0.00
2017-12-20T02:57:00.186Z,0.00
2017-12-20T02:58:00.214Z,0.00
2017-12-20T02:59:00.250Z,0.00
2017-12-20T03:00:00.293Z,0.00
2017-12-20T03:01:00.335Z,0.00
2017-12-20T03:02:00.395Z,0.00
2017-12-20T03:03:00.421Z,0.00
2017-12-20T03:04:00.463Z,0.00
2017-12-20T03:05:00.498Z,0.00
2017-12-20T03:06:00.548Z,0.00
2017-12-20T03:07:00.602Z,0.00
2017-12-20T03:08:00.624Z,0.00
2017-12-20T03:09:00.667Z,0.00
2017-12-20T03:10:00.706Z,0.00
2017-12-20T03:11:00.747Z,0.00
2017-12-20T03:12:00.868Z,0.00
2017-12-20T03:13:00.829Z,0.00
2017-12-20T03:14:00.887Z,0.00
2017-12-20T03:15:00.927Z,0.00
2017-12-20T03:16:00.956Z,0.00
2017-12-20T03:17:01.005Z,0.00
2017-12-20T03:18:01.057Z,0.00
2017-12-20T03:19:01.095Z,0.00
2017-12-20T03:20:01.123Z,0.00
2017-12-20T03:21:01.167Z,0.00
2017-12-20T03:22:01.205Z,0.00
2017-12-20T03:23:01.246Z,0.00
2017-12-20T03:24:01.308Z,0.00
2017-12-20T03:25:01.347Z,0.00
2017-12-20T03:26:01.374Z,0.00
2017-12-20T03:27:01.414Z,0.00
2017-12-20T03:28:01.454Z,0.00
2017-12-20T03:29:01.512Z,0.00
2017-12-20T03:30:01.540Z,0.00
2017-12-20T03:31:01.604Z,0.00
2017-12-20T03:32:01.619Z,0.00
2017-12-20T03:33:01.663Z,0.00
2017-12-20T03:34:01.719Z,0.00
2017-12-20T03:35:01.743Z,0.00
2017-12-20T03:36:01.802Z,0.00
2017-12-20T03:37:01.826Z,0.00
2017-12-20T03:38:01.868Z,0.00
2017-12-20T03:39:01.910Z,0.00
2017-12-20T03:40:01.956Z,0.00
2017-12-20T03:41:02.180Z,0.00
2017-12-20T03:42:02.038Z,0.00
2017-12-20T03:43:02.076Z,0.00
2017-12-20T03:44:02.119Z,0.00
2017-12-20T03:45:02.160Z,0.00
2017-12-20T03:46:02.230Z,0.00
2017-12-20T03:47:02.244Z,0.00
2017-12-20T03:48:02.285Z,0.00
2017-12-20T03:49:02.326Z,0.00
2017-12-20T03:50:02.374Z,0.00
2017-12-20T03:51:02.426Z,0.00
2017-12-20T03:52:02.452Z,0.00
2017-12-20T03:53:02.495Z,0.00
2017-12-20T03:54:02.531Z,0.00
2017-12-20T03:55:02.574Z,0.00
2017-12-20T03:56:02.635Z,0.00
2017-12-20T03:57:02.696Z,0.00
2017-12-20T03:58:02.697Z,0.00
2017-12-20T03:59:02.743Z,0.00
2017-12-20T04:00:02.782Z,0.00
2017-12-20T04:01:02.842Z,0.00
2017-12-20T04:02:02.888Z,0.00
2017-12-20T04:03:02.905Z,0.00
2017-12-20T04:04:02.948Z,0.00
2017-12-20T04:05:02.990Z,0.00
2017-12-20T04:06:03.032Z,0.00
2017-12-20T04:07:03.091Z,0.00
2017-12-20T04:08:03.114Z,0.00
2017-12-20T04:09:03.156Z,0.00
2017-12-20T04:10:03.196Z,0.00
2017-12-20T04:11:03.238Z,0.00
2017-12-20T04:12:03.299Z,0.00
2017-12-20T04:13:03.323Z,0.00
2017-12-20T04:14:03.424Z,0.00
2017-12-20T04:15:03.405Z,0.00
2017-12-20T04:16:03.486Z,0.00
2017-12-20T04:17:03.512Z,0.00
2017-12-20T04:18:03.528Z,0.00
2017-12-20T04:19:03.572Z,0.00
2017-12-20T04:20:03.616Z,0.00
2017-12-20T04:21:03.656Z,0.00
2017-12-20T04:22:03.711Z,0.00
2017-12-20T04:23:03.739Z,0.00
2017-12-20T04:24:03.780Z,0.00
2017-12-20T04:25:03.821Z,0.00
2017-12-20T04:26:03.861Z,0.00
2017-12-20T04:27:03.919Z,0.00
2017-12-20T04:28:03.944Z,0.00
2017-12-20T04:29:04.003Z,0.00
2017-12-20T04:30:04.029Z,0.00
2017-12-20T04:31:04.072Z,0.00
2017-12-20T04:32:04.111Z,0.00
2017-12-20T04:33:04.169Z,0.00
2017-12-20T04:34:04.193Z,0.00
2017-12-20T04:35:04.238Z,0.00
2017-12-20T04:36:04.278Z,0.00
2017-12-20T04:37:04.319Z,0.00
2017-12-20T04:38:04.377Z,0.00
2017-12-20T04:39:04.403Z,0.00
2017-12-20T04:40:04.448Z,0.00
2017-12-20T04:41:04.486Z,0.00
2017-12-20T04:42:04.531Z,0.00
2017-12-20T04:43:04.593Z,0.00
2017-12-20T04:44:04.608Z,0.00
2017-12-20T04:45:04.655Z,0.00
2017-12-20T04:46:04.704Z,0.00
2017-12-20T04:47:04.736Z,0.00
2017-12-20T04:48:04.800Z,0.00
2017-12-20T04:49:04.829Z,0.00
2017-12-20T04:50:04.862Z,0.00
2017-12-20T04:51:04.902Z,0.00
2017-12-20T04:52:04.945Z,0.00
2017-12-20T04:53:05.007Z,0.00
2017-12-20T04:54:05.025Z,0.00
2017-12-20T04:55:05.068Z,0.00
2017-12-20T04:56:05.111Z,0.00
2017-12-20T04:57:05.153Z,0.00
2017-12-20T04:58:05.213Z,0.00
2017-12-20T04:59:05.241Z,0.00
2017-12-20T05:00:05.286Z,0.00
2017-12-20T05:01:05.318Z,0.00
2017-12-20T05:02:05.365Z,0.00
2017-12-20T05:03:05.416Z,0.00
2017-12-20T05:04:05.441Z,0.00
2017-12-20T05:05:05.521Z,0.00
2017-12-20T05:06:05.527Z,0.00
2017-12-20T05:07:05.568Z,0.00
2017-12-20T05:09:42.022Z,0.00
2017-12-20T05:10:42.042Z,0.00
2017-12-20T05:11:42.090Z,0.00
2017-12-20T05:12:42.126Z,0.00
2017-12-20T05:13:42.182Z,0.00
2017-12-20T05:14:42.213Z,0.00
2017-12-20T05:15:42.252Z,0.00
2017-12-20T05:16:42.293Z,0.00
2017-12-20T05:17:42.335Z,0.00
2017-12-20T05:18:42.394Z,0.00
2017-12-20T05:19:42.418Z,0.00
2017-12-20T05:20:42.460Z,0.00
2017-12-20T05:21:42.501Z,0.00
2017-12-20T05:22:42.544Z,0.00
2017-12-20T05:23:42.601Z,0.00
2017-12-20T05:24:42.627Z,0.00
2017-12-20T05:25:42.673Z,0.00
2017-12-20T05:26:42.712Z,0.00
2017-12-20T05:27:42.753Z,0.00
2017-12-20T05:28:42.816Z,0.00
2017-12-20T05:29:42.835Z,0.00
2017-12-20T05:30:42.877Z,0.00
2017-12-20T05:31:42.918Z,0.00
2017-12-20T05:32:42.960Z,0.00
2017-12-20T05:33:43.027Z,0.00
2017-12-20T05:34:43.062Z,0.00
2017-12-20T05:35:43.092Z,0.00
2017-12-20T05:36:43.130Z,0.00
2017-12-20T05:37:43.167Z,0.00
2017-12-20T05:38:43.210Z,0.00
2017-12-20T05:39:43.267Z,0.00
2017-12-20T05:40:43.296Z,0.00
2017-12-20T05:41:43.334Z,0.00
2017-12-20T05:42:43.378Z,0.00
2017-12-20T05:43:43.418Z,0.00
2017-12-20T05:44:43.485Z,0.00
2017-12-20T05:45:43.501Z,0.00
2017-12-20T05:46:43.544Z,0.00
2017-12-20T05:47:43.593Z,0.00
2017-12-20T05:48:43.631Z,0.00
2017-12-20T05:49:43.689Z,0.00
2017-12-20T05:50:43.711Z,0.00
2017-12-20T05:51:43.754Z,0.00
2017-12-20T05:52:43.794Z,0.00
2017-12-20T05:53:43.839Z,0.00
2017-12-20T05:54:43.897Z,0.00
2017-12-20T05:55:43.918Z,0.00
2017-12-20T05:56:43.963Z,0.00
2017-12-20T05:57:44.004Z,0.00
2017-12-20T05:58:44.044Z,0.00
2017-12-20T05:59:44.104Z,0.00
2017-12-20T06:00:44.133Z,0.00
2017-12-20T06:01:44.169Z,0.00
2017-12-20T06:02:44.216Z,0.00
2017-12-20T06:03:44.256Z,0.00
2017-12-20T06:04:44.311Z,0.00
2017-12-20T06:05:44.356Z,0.00
2017-12-20T06:06:44.379Z,0.00
2017-12-20T06:07:44.421Z,0.00
2017-12-20T06:08:44.464Z,0.00
2017-12-20T06:09:44.507Z,0.00
2017-12-20T06:10:44.565Z,0.00
2017-12-20T06:11:44.623Z,0.00
2017-12-20T06:12:44.629Z,0.00
2017-12-20T06:13:44.678Z,0.00
2017-12-20T06:14:44.712Z,0.00
2017-12-20T06:15:44.771Z,0.00
2017-12-20T06:16:45.541Z,0.00
2017-12-20T06:17:44.839Z,0.00
2017-12-20T06:18:44.881Z,0.00
2017-12-20T06:19:44.925Z,0.00
2017-12-20T06:20:44.970Z,0.00
2017-12-20T06:21:45.022Z,0.00
2017-12-20T06:22:45.050Z,0.00
2017-12-20T06:23:45.094Z,0.00
2017-12-20T06:24:45.132Z,0.00
2017-12-20T06:25:45.175Z,0.00
2017-12-20T06:26:45.229Z,0.00
2017-12-20T06:27:45.255Z,0.00
2017-12-20T06:28:45.298Z,0.00
2017-12-20T06:29:45.339Z,0.00
2017-12-20T06:30:45.380Z,0.00
2017-12-20T06:31:45.444Z,0.00
2017-12-20T06:32:45.479Z,0.00
2017-12-20T06:33:45.514Z,0.00
2017-12-20T06:34:45.547Z,0.00
2017-12-20T06:35:45.591Z,0.00
2017-12-20T06:36:45.878Z,4.00
2017-12-20T06:37:45.670Z,0.00
2017-12-20T06:38:45.717Z,4.00
2017-12-20T06:39:45.759Z,4.00
2017-12-20T06:40:45.799Z,4.00
2017-12-20T06:41:45.840Z,4.00
2017-12-20T06:42:45.897Z,8.00
2017-12-20T06:43:45.945Z,8.00
2017-12-20T06:44:45.992Z,16.00
2017-12-20T06:45:46.012Z,16.00
2017-12-20T06:46:46.056Z,16.00
2017-12-20T06:47:46.108Z,24.00
2017-12-20T06:48:46.132Z,28.00
2017-12-20T06:49:46.174Z,32.00
2017-12-20T06:50:46.217Z,36.00
2017-12-20T06:51:46.259Z,36.00
2017-12-20T06:52:46.313Z,40.00
2017-12-20T06:53:46.844Z,52.00
2017-12-20T06:54:46.402Z,56.00
2017-12-20T06:55:46.427Z,64.00
2017-12-20T06:56:46.465Z,72.00
2017-12-20T06:57:46.510Z,76.00
2017-12-20T06:58:46.566Z,80.00
2017-12-20T06:59:46.592Z,80.00
2017-12-20T07:00:46.639Z,92.00
2017-12-20T07:01:46.674Z,100.00
2017-12-20T07:02:46.719Z,112.00
2017-12-20T07:03:46.779Z,120.00
2017-12-20T07:04:46.800Z,128.00
2017-12-20T07:05:46.843Z,132.00
2017-12-20T07:06:46.885Z,144.00
2017-12-20T07:07:46.927Z,160.00
2017-12-20T07:08:46.992Z,184.00
2017-12-20T07:09:47.009Z,208.00
2017-12-20T07:10:47.052Z,244.00
2017-12-20T07:11:47.093Z,276.00
2017-12-20T07:12:47.137Z,312.00
2017-12-20T07:13:47.196Z,352.00
2017-12-20T07:14:47.219Z,392.00
2017-12-20T07:15:47.266Z,428.00
2017-12-20T07:16:47.308Z,464.00
2017-12-20T07:17:47.346Z,500.00
2017-12-20T07:18:47.402Z,540.00
2017-12-20T07:19:47.431Z,564.00
2017-12-20T07:20:47.469Z,580.00
2017-12-20T07:21:47.512Z,596.00
2017-12-20T07:22:47.556Z,612.00
2017-12-20T07:23:47.614Z,636.00
2017-12-20T07:24:47.654Z,644.00
2017-12-20T07:25:47.679Z,636.00
2017-12-20T07:26:47.722Z,620.00
2017-12-20T07:27:47.765Z,644.00
2017-12-20T07:28:47.804Z,696.00
2017-12-20T07:29:47.860Z,764.00
2017-12-20T07:30:47.888Z,852.00
2017-12-20T07:31:47.940Z,936.00
2017-12-20T07:32:47.971Z,980.00
2017-12-20T07:33:48.013Z,984.00
2017-12-20T07:34:48.073Z,960.00
2017-12-20T07:35:48.097Z,956.00
2017-12-20T07:36:48.139Z,960.00
2017-12-20T07:37:48.181Z,932.00
2017-12-20T07:38:48.222Z,904.00
2017-12-20T07:39:48.282Z,892.00
2017-12-20T07:40:48.331Z,888.00
2017-12-20T07:41:48.348Z,860.00
2017-12-20T07:42:48.393Z,820.00
2017-12-20T07:43:48.443Z,796.00
2017-12-20T07:44:48.500Z,808.00
2017-12-20T07:45:48.518Z,796.00
2017-12-20T07:46:48.558Z,776.00
2017-12-20T07:47:48.600Z,768.00
2017-12-20T07:48:48.641Z,740.00
2017-12-20T07:49:48.701Z,680.00
2017-12-20T07:50:48.724Z,644.00
2017-12-20T07:51:48.770Z,648.00
2017-12-20T07:52:48.824Z,668.00
2017-12-20T07:53:48.851Z,668.00
2017-12-20T07:54:48.892Z,640.00
2017-12-20T07:55:48.952Z,632.00
2017-12-20T07:56:48.975Z,648.00
2017-12-20T07:57:49.017Z,668.00
2017-12-20T07:58:49.072Z,656.00
2017-12-20T07:59:49.103Z,620.00
2017-12-20T08:00:49.159Z,584.00
2017-12-20T08:01:49.188Z,548.00
2017-12-20T08:02:49.229Z,504.00
2017-12-20T08:03:49.272Z,456.00
2017-12-20T08:04:49.313Z,428.00
2017-12-20T08:05:49.370Z,408.00
2017-12-20T08:06:49.395Z,416.00
2017-12-20T08:07:49.436Z,440.00
2017-12-20T08:08:49.481Z,468.00
2017-12-20T08:09:49.521Z,500.00
2017-12-20T08:10:49.578Z,524.00
2017-12-20T08:11:49.607Z,564.00
2017-12-20T08:12:49.646Z,624.00
2017-12-20T08:13:49.687Z,684.00
2017-12-20T08:14:49.749Z,756.00
2017-12-20T08:15:49.772Z,828.00
2017-12-20T08:16:49.828Z,892.00
2017-12-20T08:17:49.854Z,980.00
2017-12-20T08:18:49.893Z,1084.00
2017-12-20T08:19:49.938Z,1212.00
2017-12-20T08:20:49.980Z,1352.00
2017-12-20T08:21:50.038Z,1480.00
2017-12-20T08:22:50.063Z,1540.00
2017-12-20T08:23:50.111Z,1584.00
2017-12-20T08:24:50.146Z,1624.00
2017-12-20T08:25:50.192Z,1660.00
2017-12-20T08:26:50.246Z,1712.00
2017-12-20T08:27:50.272Z,1784.00
2017-12-20T08:28:50.313Z,1820.00
2017-12-20T08:29:50.364Z,1804.00
2017-12-20T08:30:50.398Z,1800.00
2017-12-20T08:31:50.469Z,1852.00
2017-12-20T08:32:50.481Z,1940.00
2017-12-20T08:33:50.523Z,2088.00
2017-12-20T08:34:50.565Z,2312.00
2017-12-20T08:35:50.607Z,2592.00
2017-12-20T08:36:50.669Z,2928.00
2017-12-20T08:37:50.690Z,3228.00
2017-12-20T08:38:50.731Z,3396.00
2017-12-20T08:39:50.776Z,3484.00
2017-12-20T08:40:50.811Z,3504.00
2017-12-20T08:41:50.875Z,3528.00
2017-12-20T08:42:50.899Z,3616.00
2017-12-20T08:43:50.945Z,3760.00
2017-12-20T08:44:50.983Z,3880.00
2017-12-20T08:45:51.025Z,3984.00
2017-12-20T08:46:51.087Z,4112.00
2017-12-20T08:47:51.116Z,4280.00
2017-12-20T08:48:51.151Z,4540.00
2017-12-20T08:49:51.193Z,4920.00
2017-12-20T08:50:51.236Z,5376.00
2017-12-20T08:51:51.293Z,5824.00
2017-12-20T08:52:51.321Z,6260.00
2017-12-20T08:53:51.361Z,6560.00
2017-12-20T08:54:51.405Z,6740.00
2017-12-20T08:55:51.449Z,6836.00
2017-12-20T08:56:51.509Z,6972.00
2017-12-20T08:57:51.544Z,7196.00
2017-12-20T08:58:51.574Z,7552.00
2017-12-20T08:59:51.617Z,8132.00
2017-12-20T09:00:51.657Z,8768.00
2017-12-20T09:01:51.702Z,9208.00
2017-12-20T09:02:51.757Z,9628.00
2017-12-20T09:03:51.786Z,9764.00
2017-12-20T09:04:51.824Z,9968.00
2017-12-20T09:05:51.869Z,10104.00
2017-12-20T09:06:51.950Z,10168.00
2017-12-20T09:07:51.970Z,10048.00
2017-12-20T09:08:52.014Z,9668.00
2017-12-20T09:09:52.037Z,9484.00
2017-12-20T09:10:52.082Z,9800.00
2017-12-20T09:11:52.124Z,10208.00
2017-12-20T09:12:52.168Z,10328.00
2017-12-20T09:13:52.229Z,9900.00
2017-12-20T09:14:52.250Z,8988.00
2017-12-20T09:15:52.299Z,7836.00
2017-12-20T09:16:52.343Z,6780.00
2017-12-20T09:17:52.380Z,6144.00
2017-12-20T09:18:52.444Z,5860.00
2017-12-20T09:19:52.486Z,5944.00
2017-12-20T09:20:52.510Z,6348.00
2017-12-20T09:21:52.577Z,7020.00
2017-12-20T09:22:52.594Z,7980.00
2017-12-20T09:23:52.646Z,8712.00
2017-12-20T09:24:52.700Z,9432.00
2017-12-20T09:25:53.336Z,9776.00
2017-12-20T09:26:52.767Z,9568.00
2017-12-20T09:27:52.811Z,9524.00
2017-12-20T09:28:52.851Z,9360.00
2017-12-20T09:29:52.926Z,9072.00
2017-12-20T09:30:53.000Z,9128.00
2017-12-20T09:31:52.980Z,8992.00
2017-12-20T09:32:53.020Z,8736.00
2017-12-20T09:33:53.064Z,8456.00
2017-12-20T09:34:53.126Z,8652.00
2017-12-20T09:35:53.167Z,9068.00
2017-12-20T09:36:53.193Z,9556.00
2017-12-20T09:37:53.236Z,9892.00
2017-12-20T09:38:53.277Z,9812.00
2017-12-20T09:39:53.326Z,9536.00
2017-12-20T09:40:53.382Z,9336.00
2017-12-20T09:41:53.412Z,9252.00
2017-12-20T09:42:53.450Z,9320.00
2017-12-20T09:43:53.494Z,9512.00
2017-12-20T09:44:53.537Z,9772.00
2017-12-20T09:45:53.595Z,9932.00
2017-12-20T09:46:53.624Z,9796.00
2017-12-20T09:47:53.665Z,9600.00
2017-12-20T09:48:53.707Z,9532.00
2017-12-20T09:49:53.754Z,9496.00
2017-12-20T09:50:53.809Z,9500.00
2017-12-20T09:51:53.836Z,9572.00
2017-12-20T09:52:53.879Z,9748.00
2017-12-20T09:53:53.926Z,9992.00
2017-12-20T09:54:53.965Z,9948.00
2017-12-20T09:55:54.024Z,9720.00
2017-12-20T09:56:54.070Z,9316.00
2017-12-20T09:57:54.092Z,8848.00
2017-12-20T09:58:54.135Z,8404.00
2017-12-20T09:59:54.180Z,8072.00
2017-12-20T10:00:54.223Z,7740.00
2017-12-20T10:01:54.280Z,7484.00
2017-12-20T10:02:54.324Z,7240.00
2017-12-20T10:03:54.352Z,6984.00
2017-12-20T10:04:54.394Z,6732.00
2017-12-20T10:05:54.435Z,6508.00
2017-12-20T10:06:54.480Z,6392.00
2017-12-20T10:07:54.539Z,6416.00
2017-12-20T10:08:54.563Z,6528.00
2017-12-20T10:09:54.606Z,6560.00
2017-12-20T10:10:54.648Z,6376.00
2017-12-20T10:11:54.693Z,6360.00
2017-12-20T10:12:54.749Z,6544.00
2017-12-20T10:13:54.777Z,6836.00
2017-12-20T10:14:54.819Z,7084.00
2017-12-20T10:15:54.868Z,7272.00
2017-12-20T10:16:54.909Z,7352.00
2017-12-20T10:17:54.962Z,7428.00
2017-12-20T10:18:55.005Z,7424.00
2017-12-20T10:19:55.037Z,7376.00
2017-12-20T10:20:55.079Z,7316.00
2017-12-20T10:21:55.119Z,7300.00
2017-12-20T10:22:55.160Z,7236.00
2017-12-20T10:23:55.218Z,7160.00
2017-12-20T10:24:55.251Z,7116.00
2017-12-20T10:25:55.289Z,7252.00
2017-12-20T10:26:55.347Z,7540.00
2017-12-20T10:27:55.393Z,7760.00
2017-12-20T10:28:55.424Z,7712.00
2017-12-20T10:29:55.461Z,7580.00
2017-12-20T10:30:55.501Z,7384.00
2017-12-20T10:31:55.549Z,7168.00
2017-12-20T10:32:55.601Z,7060.00
2017-12-20T10:33:55.628Z,7116.00
2017-12-20T10:34:55.689Z,7240.00
2017-12-20T10:35:55.713Z,7328.00
2017-12-20T10:36:55.754Z,7420.00
2017-12-20T10:37:55.813Z,7540.00
2017-12-20T10:38:55.840Z,7672.00
2017-12-20T10:39:55.898Z,7740.00
2017-12-20T10:40:55.927Z,7864.00
2017-12-20T10:41:55.968Z,8060.00
2017-12-20T10:42:56.009Z,8280.00
2017-12-20T10:43:56.059Z,8596.00
2017-12-20T10:44:56.110Z,8988.00
2017-12-20T10:45:56.152Z,9308.00
2017-12-20T10:46:56.179Z,9744.00
2017-12-20T10:47:56.227Z,10056.00
2017-12-20T10:48:56.265Z,10304.00
2017-12-20T10:49:56.326Z,10648.00
2017-12-20T10:50:56.356Z,11160.00
2017-12-20T10:51:56.398Z,11364.00
2017-12-20T10:52:56.433Z,11400.00
2017-12-20T10:53:56.478Z,11492.00
2017-12-20T10:54:56.548Z,11672.00
2017-12-20T10:55:56.582Z,11852.00
2017-12-20T10:56:56.609Z,12064.00
2017-12-20T10:57:56.647Z,12220.00
2017-12-20T10:58:56.690Z,12268.00
2017-12-20T10:59:56.728Z,12324.00
2017-12-20T11:00:56.792Z,12536.00
2017-12-20T11:01:56.819Z,12656.00
2017-12-20T11:02:56.860Z,12804.00
2017-12-20T11:03:56.904Z,12884.00
2017-12-20T11:04:56.946Z,12860.00
2017-12-20T11:05:57.004Z,12920.00
2017-12-20T11:06:57.032Z,13192.00
2017-12-20T11:07:57.075Z,13628.00
2017-12-20T11:08:57.116Z,14080.00
2017-12-20T11:09:57.161Z,14560.00
2017-12-20T11:10:57.218Z,15360.00
2017-12-20T11:11:57.248Z,16284.00
2017-12-20T11:12:57.289Z,17312.00
2017-12-20T11:13:57.330Z,17984.00
2017-12-20T11:14:57.373Z,17824.00
2017-12-20T11:15:57.436Z,17344.00
2017-12-20T11:16:57.462Z,16648.00
2017-12-20T11:17:57.507Z,16168.00
2017-12-20T11:18:57.546Z,15840.00
2017-12-20T11:19:57.588Z,15752.00
2017-12-20T11:20:57.655Z,15928.00
2017-12-20T11:21:57.673Z,15972.00
2017-12-20T11:22:57.722Z,15772.00
2017-12-20T11:23:57.765Z,15320.00
2017-12-20T11:24:57.806Z,14952.00
2017-12-20T11:25:57.907Z,14648.00
2017-12-20T11:26:57.888Z,13928.00
2017-12-20T11:27:57.930Z,13128.00
2017-12-20T11:28:57.974Z,12832.00
2017-12-20T11:29:58.018Z,12576.00
2017-12-20T11:30:58.079Z,12428.00
2017-12-20T11:31:58.105Z,12640.00
2017-12-20T11:32:58.147Z,13048.00
2017-12-20T11:33:58.194Z,13332.00
2017-12-20T11:34:58.232Z,13476.00
2017-12-20T11:35:58.292Z,13572.00
2017-12-20T11:36:58.319Z,13176.00
2017-12-20T11:37:58.362Z,12740.00
2017-12-20T11:38:58.410Z,12776.00
2017-12-20T11:39:58.449Z,12996.00
2017-12-20T11:40:58.512Z,13328.00
2017-12-20T11:41:58.552Z,13720.00
2017-12-20T11:42:58.584Z,14316.00
2017-12-20T11:43:58.624Z,14800.00
2017-12-20T11:44:58.666Z,15152.00
2017-12-20T11:45:58.705Z,15380.00
2017-12-20T11:46:58.766Z,15692.00
2017-12-20T11:47:58.798Z,16096.00
2017-12-20T11:48:58.836Z,16240.00
2017-12-20T11:49:58.881Z,16224.00
2017-12-20T11:50:58.929Z,16372.00
2017-12-20T11:51:59.002Z,16548.00
2017-12-20T11:52:59.009Z,16500.00
2017-12-20T11:53:59.054Z,16256.00
2017-12-20T11:54:59.107Z,15680.00
2017-12-20T11:55:59.140Z,15016.00
2017-12-20T11:56:59.208Z,14392.00
2017-12-20T11:57:59.244Z,13680.00
2017-12-20T11:58:59.271Z,12948.00
2017-12-20T11:59:59.313Z,12372.00
2017-12-20T12:00:59.354Z,11864.00
2017-12-20T12:01:59.402Z,11524.00
2017-12-20T12:02:59.467Z,11276.00
2017-12-20T12:03:59.488Z,11308.00
2017-12-20T12:04:59.531Z,11596.00
2017-12-20T12:05:59.577Z,12308.00
2017-12-20T12:06:59.625Z,12704.00
2017-12-20T12:07:59.677Z,12460.00
2017-12-20T12:08:59.708Z,12000.00
2017-12-20T12:09:59.750Z,11516.00
2017-12-20T12:10:59.793Z,10908.00
2017-12-20T12:11:59.837Z,10220.00
2017-12-20T12:12:59.894Z,9560.00
2017-12-20T12:13:59.933Z,8940.00
2017-12-20T12:14:59.969Z,8688.00
2017-12-20T12:16:00.013Z,8624.00
2017-12-20T12:17:00.052Z,8408.00
2017-12-20T12:18:00.094Z,8296.00
2017-12-20T12:19:00.154Z,8280.00
2017-12-20T12:20:00.183Z,8160.00
2017-12-20T12:21:00.234Z,7908.00
2017-12-20T12:22:00.275Z,7728.00
2017-12-20T12:23:00.314Z,7588.00
2017-12-20T12:24:00.373Z,7536.00
2017-12-20T12:25:00.407Z,7668.00
2017-12-20T12:26:00.443Z,7808.00
2017-12-20T12:27:00.502Z,7876.00
2017-12-20T12:28:00.537Z,8084.00
2017-12-20T12:29:00.593Z,8280.00
2017-12-20T12:30:00.615Z,8324.00
2017-12-20T12:31:00.658Z,8216.00
2017-12-20T12:32:00.708Z,8064.00
2017-12-20T12:33:00.747Z,7916.00
2017-12-20T12:34:00.804Z,7972.00
2017-12-20T12:35:00.834Z,8376.00
2017-12-20T12:36:00.884Z,8760.00
2017-12-20T12:37:00.933Z,8836.00
2017-12-20T12:38:00.963Z,8888.00
2017-12-20T12:39:01.023Z,9228.00
2017-12-20T12:40:01.052Z,9624.00
2017-12-20T12:41:01.110Z,9660.00
2017-12-20T12:42:01.140Z,9704.00
2017-12-20T12:43:01.185Z,9712.00
2017-12-20T12:44:01.224Z,9612.00
2017-12-20T12:45:01.316Z,9124.00
2017-12-20T12:46:01.329Z,8820.00